createdAt,value
2022-09-15T00:01:02.150Z,13.42
2022-09-15T00:03:29.539Z,13.40
2022-09-15T00:05:58.112Z,13.38
2022-09-15T00:08:25.734Z,13.36
2022-09-15T00:10:55.800Z,13.36
2022-09-15T00:13:23.284Z,13.35
2022-09-15T00:15:50.692Z,13.38
2022-09-15T00:18:18.081Z,13.37
2022-09-15T00:20:46.295Z,13.31
2022-09-15T00:23:16.475Z,13.30
2022-09-15T00:25:45.320Z,13.28
2022-09-15T00:28:13.010Z,13.26
2022-09-15T00:30:41.791Z,13.25
2022-09-15T00:33:09.207Z,13.22
2022-09-15T00:35:37.972Z,13.24
2022-09-15T00:38:05.512Z,13.28
2022-09-15T00:40:42.436Z,13.22
2022-09-15T00:43:10.629Z,13.21
2022-09-15T00:45:37.947Z,13.23
2022-09-15T00:48:06.465Z,13.22
2022-09-15T00:50:35.529Z,13.23
2022-09-15T00:53:05.731Z,13.22
2022-09-15T00:55:37.783Z,13.29
2022-09-15T00:58:08.502Z,13.31
2022-09-15T01:00:36.101Z,13.28
2022-09-15T01:03:04.253Z,13.25
2022-09-15T01:05:34.877Z,13.24
2022-09-15T01:08:14.110Z,13.28
2022-09-15T01:10:42.953Z,13.43
2022-09-15T01:13:12.858Z,13.56
2022-09-15T01:15:49.088Z,13.66
2022-09-15T01:18:22.048Z,13.68
2022-09-15T01:21:03.497Z,13.74
2022-09-15T01:24:31.754Z,13.76
2022-09-15T01:27:41.037Z,13.74
2022-09-15T01:30:12.937Z,13.74
2022-09-15T01:32:53.358Z,13.64
2022-09-15T01:35:30.107Z,13.67
2022-09-15T01:38:03.345Z,13.66
2022-09-15T01:40:36.023Z,13.68
2022-09-15T01:43:06.142Z,13.80
2022-09-15T01:45:37.522Z,13.74
2022-09-15T01:48:08.645Z,13.74
2022-09-15T01:50:42.905Z,13.82
2022-09-15T01:53:17.317Z,13.96
2022-09-15T01:55:50.236Z,14.04
2022-09-15T01:58:17.519Z,14.12
2022-09-15T02:00:51.651Z,14.17
2022-09-15T02:03:23.564Z,14.19
2022-09-15T02:05:55.010Z,14.25
2022-09-15T02:08:28.397Z,14.28
2022-09-15T02:11:02.972Z,14.29
2022-09-15T02:13:37.897Z,14.33
2022-09-15T02:16:14.073Z,14.38
2022-09-15T02:18:48.686Z,14.44
2022-09-15T02:21:20.951Z,14.32
2022-09-15T02:23:50.990Z,14.43
2022-09-15T02:26:23.026Z,14.46
2022-09-15T02:28:52.125Z,14.33
2022-09-15T02:31:24.964Z,14.37
2022-09-15T02:33:57.533Z,14.35
2022-09-15T02:36:26.710Z,14.35
2022-09-15T02:38:57.719Z,14.41
2022-09-15T02:41:25.254Z,14.36
2022-09-15T02:43:52.661Z,14.34
2022-09-15T02:46:22.637Z,14.32
2022-09-15T02:48:49.879Z,14.19
2022-09-15T02:51:17.593Z,14.14
2022-09-15T02:53:45.403Z,14.13
2022-09-15T02:56:12.805Z,14.00
2022-09-15T02:58:40.086Z,13.95
2022-09-15T03:01:08.604Z,13.92
2022-09-15T03:03:41.076Z,13.91
2022-09-15T03:06:10.687Z,13.94
2022-09-15T03:08:37.889Z,13.93
2022-09-15T03:11:05.201Z,13.96
2022-09-15T03:13:32.408Z,13.96
2022-09-15T03:15:59.659Z,13.95
2022-09-15T03:18:26.913Z,13.95
2022-09-15T03:20:57.677Z,13.94
2022-09-15T03:23:24.863Z,13.95
2022-09-15T03:25:52.069Z,13.97
2022-09-15T03:28:19.330Z,13.94
2022-09-15T03:30:46.591Z,13.98
2022-09-15T03:33:13.845Z,13.94
2022-09-15T03:35:41.177Z,13.95
2022-09-15T03:38:09.841Z,14.01
2022-09-15T03:40:37.052Z,14.01
2022-09-15T03:43:04.287Z,14.02
2022-09-15T03:45:31.657Z,14.01
2022-09-15T03:47:58.979Z,14.05
2022-09-15T03:50:26.209Z,14.07
2022-09-15T03:52:56.806Z,14.09
2022-09-15T03:55:28.132Z,14.10
2022-09-15T03:57:55.773Z,14.13
2022-09-15T04:00:23.260Z,14.13
2022-09-15T04:02:50.976Z,14.20
2022-09-15T04:05:18.249Z,14.15
2022-09-15T04:07:45.576Z,14.20
2022-09-15T04:10:12.799Z,14.13
2022-09-15T04:12:41.613Z,14.12
2022-09-15T04:15:09.877Z,14.22
2022-09-15T04:17:37.409Z,14.20
2022-09-15T04:20:05.256Z,14.20
2022-09-15T04:22:32.671Z,14.26
2022-09-15T04:24:59.901Z,14.29
2022-09-15T04:27:27.157Z,14.21
2022-09-15T04:29:55.848Z,14.24
2022-09-15T04:32:23.119Z,14.27
2022-09-15T04:34:50.380Z,14.26
2022-09-15T04:37:17.632Z,14.28
2022-09-15T04:39:44.864Z,14.23
2022-09-15T04:42:12.212Z,14.28
2022-09-15T04:44:39.431Z,14.30
2022-09-15T04:47:08.066Z,14.35
2022-09-15T04:49:35.289Z,14.25
2022-09-15T04:52:04.765Z,14.33
2022-09-15T04:54:35.017Z,14.31
2022-09-15T04:57:02.415Z,14.28
2022-09-15T04:59:29.677Z,14.31
2022-09-15T05:01:56.977Z,14.22
2022-09-15T05:04:25.627Z,14.22
2022-09-15T05:06:52.820Z,14.23
2022-09-15T05:09:20.081Z,14.22
2022-09-15T05:11:47.336Z,14.21
2022-09-15T05:14:14.550Z,14.23
2022-09-15T05:16:41.914Z,14.29
2022-09-15T05:19:10.148Z,14.26
2022-09-15T05:21:38.943Z,14.23
2022-09-15T05:24:07.044Z,14.31
2022-09-15T05:26:34.352Z,14.32
2022-09-15T05:29:01.633Z,14.34
2022-09-15T05:31:30.935Z,14.38
2022-09-15T05:34:00.426Z,14.37
2022-09-15T05:36:27.774Z,14.43
2022-09-15T05:38:56.897Z,14.46
2022-09-15T05:41:25.181Z,14.49
2022-09-15T05:43:54.990Z,14.43
2022-09-15T05:46:22.810Z,14.45
2022-09-15T05:48:50.138Z,14.58
2022-09-15T05:51:17.343Z,14.66
2022-09-15T05:53:44.662Z,14.59
2022-09-15T05:56:15.177Z,14.75
2022-09-15T05:58:44.415Z,14.82
2022-09-15T06:01:14.383Z,14.75
2022-09-15T06:03:42.164Z,14.94
2022-09-15T06:06:09.469Z,15.00
2022-09-15T06:08:43.630Z,14.96
2022-09-15T06:11:14.381Z,14.89
2022-09-15T06:13:42.517Z,14.82
2022-09-15T06:16:11.727Z,14.93
2022-09-15T06:18:40.119Z,14.90
2022-09-15T06:21:10.163Z,14.91
2022-09-15T06:23:38.197Z,14.87
2022-09-15T06:26:10.916Z,14.96
2022-09-15T06:28:41.258Z,15.05
2022-09-15T06:31:12.766Z,15.14
2022-09-15T06:33:42.604Z,15.30
2022-09-15T06:36:10.050Z,15.30
2022-09-15T06:38:37.830Z,15.31
2022-09-15T06:41:05.618Z,15.36
2022-09-15T06:43:33.896Z,15.40
2022-09-15T06:46:04.036Z,15.33
2022-09-15T06:48:31.384Z,15.48
2022-09-15T06:50:59.107Z,15.46
2022-09-15T06:53:28.390Z,15.37
2022-09-15T06:55:55.705Z,15.53
2022-09-15T06:58:23.014Z,15.53
2022-09-15T07:00:50.249Z,15.59
2022-09-15T07:03:18.892Z,15.59
2022-09-15T07:05:46.196Z,15.78
2022-09-15T07:08:13.473Z,15.88
2022-09-15T07:10:43.417Z,16.01
2022-09-15T07:13:10.801Z,16.02
2022-09-15T07:15:38.500Z,16.02
2022-09-15T07:18:06.392Z,16.04
2022-09-15T07:20:38.576Z,16.10
2022-09-15T07:23:05.913Z,16.17
2022-09-15T07:25:33.162Z,16.25
2022-09-15T07:28:00.504Z,16.30
2022-09-15T07:30:28.065Z,16.37
2022-09-15T07:32:55.348Z,16.33
2022-09-15T07:35:22.671Z,16.16
2022-09-15T07:37:51.373Z,16.08
2022-09-15T07:40:18.768Z,15.94
2022-09-15T07:42:46.141Z,16.07
2022-09-15T07:45:13.588Z,16.29
2022-09-15T07:47:40.809Z,16.36
2022-09-15T07:50:08.369Z,16.37
2022-09-15T07:52:35.719Z,16.34
2022-09-15T07:55:04.976Z,16.44
2022-09-15T07:57:32.251Z,16.58
2022-09-15T07:59:59.468Z,16.46
2022-09-15T08:02:26.707Z,16.53
2022-09-15T08:04:53.998Z,16.63
2022-09-15T08:07:21.228Z,16.83
2022-09-15T08:09:48.452Z,16.95
2022-09-15T08:12:17.114Z,17.03
2022-09-15T08:14:44.293Z,17.14
2022-09-15T08:17:11.843Z,17.09
2022-09-15T08:19:39.187Z,17.04
2022-09-15T08:22:06.420Z,17.34
2022-09-15T08:24:34.407Z,17.64
2022-09-15T08:27:01.608Z,17.81
2022-09-15T08:29:30.308Z,17.68
2022-09-15T08:31:58.277Z,17.69
2022-09-15T08:34:27.975Z,17.66
2022-09-15T08:36:55.291Z,17.51
2022-09-15T08:39:22.546Z,17.26
2022-09-15T08:41:52.421Z,17.39
2022-09-15T08:44:31.530Z,17.65
2022-09-15T08:47:05.523Z,17.62
2022-09-15T08:49:51.618Z,17.80
2022-09-15T08:52:26.203Z,17.84
2022-09-15T08:54:57.236Z,16.76
2022-09-15T08:57:25.786Z,16.00
2022-09-15T08:59:54.197Z,15.32
2022-09-15T09:02:46.430Z,14.55
2022-09-15T09:05:28.001Z,13.95
2022-09-15T09:08:21.160Z,13.88
2022-09-15T09:10:52.412Z,13.97
2022-09-15T09:13:35.268Z,13.97
2022-09-15T09:16:17.685Z,13.93
2022-09-15T09:19:03.549Z,13.76
2022-09-15T09:21:34.621Z,13.79
2022-09-15T09:24:05.202Z,13.95
2022-09-15T09:26:35.751Z,14.11
2022-09-15T09:29:10.081Z,14.43
2022-09-15T09:31:37.632Z,14.68
2022-09-15T09:34:20.259Z,14.98
2022-09-15T09:36:53.171Z,15.09
2022-09-15T09:39:20.437Z,15.24
2022-09-15T09:41:48.102Z,15.45
2022-09-15T09:44:15.540Z,15.46
2022-09-15T09:46:43.107Z,15.64
2022-09-15T09:49:17.467Z,15.65
2022-09-15T09:51:50.104Z,15.59
2022-09-15T09:54:17.686Z,15.81
2022-09-15T09:56:45.157Z,16.01
2022-09-15T09:59:34.534Z,17.22
2022-09-15T10:02:12.554Z,18.52
2022-09-15T10:04:42.516Z,19.68
2022-09-15T10:07:09.966Z,18.98
2022-09-15T10:09:37.983Z,18.07
2022-09-15T10:12:06.492Z,18.38
2022-09-15T10:14:36.384Z,17.43
2022-09-15T10:17:07.276Z,17.60
2022-09-15T10:19:43.151Z,17.56
2022-09-15T10:22:22.090Z,17.38
2022-09-15T10:24:49.451Z,17.75
2022-09-15T10:27:26.085Z,17.38
2022-09-15T10:29:53.790Z,17.46
2022-09-15T10:32:25.657Z,17.11
2022-09-15T10:35:07.315Z,17.25
2022-09-15T10:37:43.437Z,17.63
2022-09-15T10:40:37.379Z,17.96
2022-09-15T10:43:19.508Z,18.54
2022-09-15T10:45:49.267Z,18.92
2022-09-15T10:48:37.584Z,19.81
2022-09-15T10:51:18.281Z,20.22
2022-09-15T10:54:07.008Z,20.09
2022-09-15T10:56:38.458Z,19.47
2022-09-15T10:59:20.746Z,18.76
2022-09-15T11:02:04.982Z,18.77
2022-09-15T11:04:56.131Z,19.39
2022-09-15T11:07:33.554Z,20.07
2022-09-15T11:10:10.927Z,19.95
2022-09-15T11:12:55.399Z,19.62
2022-09-15T11:15:41.722Z,17.31
2022-09-15T11:18:30.931Z,15.79
2022-09-15T11:21:19.895Z,14.88
2022-09-15T11:23:57.134Z,14.66
2022-09-15T11:26:32.710Z,14.67
2022-09-15T11:29:05.461Z,14.62
2022-09-15T11:31:39.600Z,14.55
2022-09-15T11:34:15.393Z,14.68
2022-09-15T11:36:49.238Z,14.65
2022-09-15T11:39:22.146Z,14.81
2022-09-15T11:41:55.544Z,15.09
2022-09-15T11:44:27.137Z,15.44
2022-09-15T11:47:05.254Z,15.74
2022-09-15T11:49:40.509Z,15.79
2022-09-15T11:52:31.864Z,17.58
2022-09-15T11:55:07.065Z,19.49
2022-09-15T11:57:44.371Z,19.26
2022-09-15T12:00:13.934Z,19.27
2022-09-15T12:02:49.016Z,20.59
2022-09-15T12:05:20.612Z,20.79
2022-09-15T12:07:53.392Z,20.46
2022-09-15T12:10:24.101Z,21.40
2022-09-15T12:12:53.854Z,22.35
2022-09-15T12:15:21.135Z,22.96
2022-09-15T12:17:55.107Z,23.50
2022-09-15T12:20:28.314Z,25.08
2022-09-15T12:23:04.338Z,22.46
2022-09-15T12:25:40.215Z,20.45
2022-09-15T12:28:40.514Z,19.18
2022-09-15T12:31:26.192Z,18.62
2022-09-15T12:33:55.282Z,18.59
2022-09-15T12:36:45.516Z,20.18
2022-09-15T12:39:37.619Z,21.70
2022-09-15T12:42:11.024Z,21.14
2022-09-15T12:44:42.409Z,19.42
2022-09-15T12:47:19.951Z,18.38
2022-09-15T12:49:49.870Z,17.89
2022-09-15T12:52:20.151Z,17.87
2022-09-15T12:54:53.207Z,19.28
2022-09-15T12:57:24.549Z,19.30
2022-09-15T13:00:25.031Z,18.09
2022-09-15T13:02:54.328Z,17.64
2022-09-15T13:05:58.685Z,17.14
2022-09-15T13:08:48.340Z,16.82
2022-09-15T13:11:19.743Z,16.87
2022-09-15T13:13:51.629Z,16.66
2022-09-15T13:16:26.716Z,16.83
2022-09-15T13:19:13.726Z,16.77
2022-09-15T13:21:44.934Z,16.62
2022-09-15T13:24:20.104Z,16.66
2022-09-15T13:26:50.804Z,16.86
2022-09-15T13:29:19.270Z,17.08
2022-09-15T13:31:54.947Z,17.25
2022-09-15T13:35:07.840Z,17.27
2022-09-15T13:38:08.120Z,17.45
2022-09-15T13:41:03.617Z,18.17
2022-09-15T13:44:09.209Z,19.61
2022-09-15T13:46:49.303Z,20.93
2022-09-15T13:49:44.073Z,21.11
2022-09-15T13:52:26.427Z,21.22
2022-09-15T13:55:16.576Z,20.24
2022-09-15T14:00:42.625Z,17.20
2022-09-15T14:03:12.737Z,16.07
2022-09-15T14:05:40.137Z,15.71
2022-09-15T14:08:12.786Z,15.47
2022-09-15T14:10:46.933Z,15.34
2022-09-15T14:13:17.105Z,15.45
2022-09-15T14:15:56.477Z,15.64
2022-09-15T14:18:23.668Z,15.38
2022-09-15T14:20:58.707Z,15.32
2022-09-15T14:23:26.352Z,15.26
2022-09-15T14:25:55.023Z,15.03
2022-09-15T14:28:31.379Z,14.91
2022-09-15T14:31:00.686Z,14.58
2022-09-15T14:33:37.029Z,14.49
2022-09-15T14:36:22.356Z,14.51
2022-09-15T14:39:06.872Z,14.68
2022-09-15T14:41:35.958Z,14.95
2022-09-15T14:45:52.340Z,15.12
2022-09-15T14:47:11.335Z,15.50
2022-09-15T14:49:38.566Z,15.77
2022-09-15T14:52:22.206Z,16.33
2022-09-15T14:54:50.245Z,17.89
2022-09-15T14:57:21.719Z,17.46
2022-09-15T14:59:52.254Z,16.93
2022-09-15T15:02:27.510Z,16.67
2022-09-15T15:05:00.108Z,16.50
2022-09-15T15:07:30.551Z,16.59
2022-09-15T15:10:00.809Z,16.57
2022-09-15T15:12:34.777Z,16.59
2022-09-15T15:15:03.153Z,16.50
2022-09-15T15:17:34.025Z,16.54
2022-09-15T15:20:13.276Z,16.20
2022-09-15T15:22:42.700Z,15.76
2022-09-15T15:25:31.458Z,15.26
2022-09-15T15:28:01.056Z,14.99
2022-09-15T15:30:49.250Z,14.78
2022-09-15T15:33:24.069Z,14.75
2022-09-15T15:36:06.312Z,14.64
2022-09-15T15:38:35.714Z,14.65
2022-09-15T15:41:05.280Z,14.64
2022-09-15T15:43:34.846Z,14.58
2022-09-15T15:46:04.355Z,14.41
2022-09-15T15:48:36.846Z,14.47
2022-09-15T15:51:06.468Z,14.48
2022-09-15T15:53:33.870Z,14.68
2022-09-15T15:56:01.565Z,14.69
2022-09-15T15:58:28.804Z,14.78
2022-09-15T16:00:57.746Z,14.88
2022-09-15T16:03:25.252Z,14.89
2022-09-15T16:05:54.173Z,14.78
2022-09-15T16:08:27.455Z,14.62
2022-09-15T16:10:55.455Z,14.47
2022-09-15T16:13:24.620Z,14.31
2022-09-15T16:15:52.609Z,13.80
2022-09-15T16:18:21.280Z,13.66
2022-09-15T16:20:48.556Z,13.72
2022-09-15T16:23:17.836Z,13.74
2022-09-15T16:25:48.809Z,13.67
2022-09-15T16:28:16.253Z,13.71
2022-09-15T16:30:44.117Z,13.75
2022-09-15T16:33:14.091Z,13.62
2022-09-15T16:35:47.921Z,13.70
2022-09-15T16:38:15.193Z,13.68
2022-09-15T16:40:42.406Z,13.53
2022-09-15T16:43:13.096Z,13.58
2022-09-15T16:45:41.174Z,13.49
2022-09-15T16:48:09.146Z,13.59
2022-09-15T16:50:39.811Z,13.63
2022-09-15T16:53:14.361Z,13.68
2022-09-15T16:55:44.872Z,13.69
2022-09-15T16:58:13.092Z,13.66
2022-09-15T17:00:40.552Z,13.66
2022-09-15T17:03:08.271Z,13.60
2022-09-15T17:05:38.171Z,13.52
2022-09-15T17:08:07.133Z,13.58
2022-09-15T17:10:36.600Z,13.57
2022-09-15T17:13:04.742Z,13.61
2022-09-15T17:15:35.285Z,13.61
2022-09-15T17:18:03.315Z,13.66
2022-09-15T17:20:31.728Z,13.63
2022-09-15T17:23:01.811Z,13.69
2022-09-15T17:25:31.724Z,13.67
2022-09-15T17:28:01.315Z,13.71
2022-09-15T17:30:30.841Z,13.62
2022-09-15T17:33:02.273Z,13.63
2022-09-15T17:35:33.128Z,13.66
2022-09-15T17:38:01.052Z,13.62
2022-09-15T17:40:28.813Z,13.57
2022-09-15T17:42:56.224Z,13.58
2022-09-15T17:45:27.102Z,13.49
2022-09-15T17:47:54.382Z,13.43
2022-09-15T17:50:23.058Z,13.37
2022-09-15T17:52:50.840Z,13.34
2022-09-15T17:55:20.389Z,13.32
2022-09-15T17:57:49.130Z,13.30
2022-09-15T18:00:17.959Z,13.23
2022-09-15T18:02:48.540Z,13.20
2022-09-15T18:05:21.752Z,13.17
2022-09-15T18:07:49.251Z,13.14
2022-09-15T18:10:17.389Z,13.17
2022-09-15T18:12:48.378Z,13.16
2022-09-15T18:15:19.525Z,13.14
2022-09-15T18:17:48.788Z,13.12
2022-09-15T18:20:18.603Z,13.06
2022-09-15T18:22:46.987Z,13.01
2022-09-15T18:25:17.787Z,13.00
2022-09-15T18:27:45.799Z,12.91
2022-09-15T18:30:13.565Z,12.96
2022-09-15T18:32:40.836Z,12.98
2022-09-15T18:35:10.282Z,13.00
2022-09-15T18:37:38.227Z,12.95
2022-09-15T18:40:08.027Z,12.88
2022-09-15T18:42:35.457Z,12.83
2022-09-15T18:45:02.696Z,12.79
2022-09-15T18:47:30.191Z,12.78
2022-09-15T18:49:57.578Z,12.77
2022-09-15T18:52:27.125Z,12.76
2022-09-15T18:54:54.558Z,12.70
2022-09-15T18:57:21.985Z,12.73
2022-09-15T18:59:49.509Z,12.74
2022-09-15T19:02:16.879Z,12.71
2022-09-15T19:04:44.361Z,12.71
2022-09-15T19:07:12.363Z,12.65
2022-09-15T19:09:41.903Z,12.57
2022-09-15T19:12:09.186Z,12.61
2022-09-15T19:14:36.511Z,12.57
2022-09-15T19:17:03.776Z,12.53
2022-09-15T19:19:32.417Z,12.55
2022-09-15T19:21:59.745Z,12.53
2022-09-15T19:24:27.032Z,12.50
2022-09-15T19:26:55.715Z,12.49
2022-09-15T19:29:22.992Z,12.51
2022-09-15T19:31:50.346Z,12.45
2022-09-15T19:34:17.560Z,12.47
2022-09-15T19:36:44.835Z,12.44
2022-09-15T19:39:13.008Z,12.44
2022-09-15T19:41:40.274Z,12.42
2022-09-15T19:44:10.755Z,12.44
2022-09-15T19:46:38.406Z,12.42
2022-09-15T19:49:05.861Z,12.40
2022-09-15T19:51:33.292Z,12.46
2022-09-15T19:54:00.621Z,12.46
2022-09-15T19:56:28.852Z,12.47
2022-09-15T19:58:57.964Z,12.53
2022-09-15T20:01:28.565Z,12.49
2022-09-15T20:03:56.773Z,12.53
2022-09-15T20:06:28.826Z,12.58
2022-09-15T20:08:58.918Z,12.57
2022-09-15T20:11:27.277Z,12.61
2022-09-15T20:13:55.586Z,12.56
2022-09-15T20:16:24.472Z,12.57
2022-09-15T20:18:54.383Z,12.55
2022-09-15T20:21:45.940Z,12.58
2022-09-15T20:24:11.064Z,12.55
2022-09-15T20:26:38.324Z,12.56
2022-09-15T20:29:05.657Z,12.52
2022-09-15T20:31:33.028Z,12.55
2022-09-15T20:34:02.198Z,12.58
2022-09-15T20:36:31.511Z,12.53
2022-09-15T20:38:59.657Z,12.50
2022-09-15T20:41:28.564Z,12.59
2022-09-15T20:43:55.786Z,12.54
2022-09-15T20:46:23.939Z,12.57
2022-09-15T20:48:52.216Z,12.53
2022-09-15T20:51:23.007Z,12.48
2022-09-15T20:53:51.587Z,12.53
2022-09-15T20:56:21.659Z,12.51
2022-09-15T20:58:48.933Z,12.50
2022-09-15T21:01:21.129Z,12.49
2022-09-15T21:03:48.707Z,12.46
2022-09-15T21:06:18.496Z,12.43
2022-09-15T21:08:48.175Z,12.43
2022-09-15T21:11:17.034Z,12.39
2022-09-15T21:13:44.320Z,12.36
2022-09-15T21:16:13.581Z,12.35
2022-09-15T21:18:42.595Z,12.38
2022-09-15T21:21:11.483Z,12.45
2022-09-15T21:23:40.297Z,12.48
2022-09-15T21:26:10.757Z,12.35
2022-09-15T21:28:38.300Z,12.25
2022-09-15T21:31:08.721Z,12.18
2022-09-15T21:33:37.468Z,12.10
2022-09-15T21:36:06.770Z,12.08
2022-09-15T21:38:35.061Z,12.00
2022-09-15T21:41:03.513Z,11.99
2022-09-15T21:43:33.147Z,11.94
2022-09-15T21:46:00.699Z,11.94
2022-09-15T21:48:27.966Z,11.91
2022-09-15T21:50:55.276Z,11.89
2022-09-15T21:53:22.708Z,11.83
2022-09-15T21:55:50.766Z,11.81
2022-09-15T21:58:19.114Z,11.77
2022-09-15T22:00:48.391Z,11.73
2022-09-15T22:03:16.216Z,11.72
2022-09-15T22:05:46.774Z,11.72
2022-09-15T22:08:15.640Z,11.73
2022-09-15T22:10:43.714Z,11.66
2022-09-15T22:13:12.036Z,11.73
2022-09-15T22:15:39.312Z,11.68
2022-09-15T22:18:08.057Z,11.63
2022-09-15T22:21:02.322Z,11.60
2022-09-15T22:23:29.589Z,11.58
2022-09-15T22:26:00.245Z,11.63
2022-09-15T22:28:27.643Z,11.58
2022-09-15T22:30:57.477Z,11.58
2022-09-15T22:33:26.673Z,11.55
2022-09-15T22:35:54.383Z,11.51
2022-09-15T22:38:21.712Z,11.51
2022-09-15T22:40:48.969Z,11.53
2022-09-15T22:43:16.222Z,11.50
2022-09-15T22:45:43.726Z,11.52
2022-09-15T22:48:11.041Z,11.52
2022-09-15T22:50:39.918Z,11.50
2022-09-15T22:53:07.255Z,11.53
2022-09-15T22:55:34.466Z,11.54
2022-09-15T22:58:01.707Z,11.57
2022-09-15T23:00:29.095Z,11.55
2022-09-15T23:02:56.335Z,11.52
2022-09-15T23:05:24.754Z,11.51
2022-09-15T23:07:53.465Z,11.48
2022-09-15T23:10:20.808Z,11.48
2022-09-15T23:12:48.597Z,11.43
2022-09-15T23:15:15.963Z,11.54
2022-09-15T23:17:43.228Z,11.45
2022-09-15T23:20:10.488Z,11.47
2022-09-15T23:22:37.806Z,11.55
2022-09-15T23:25:07.118Z,11.54
2022-09-15T23:27:34.372Z,11.54
2022-09-15T23:30:01.628Z,11.49
2022-09-15T23:32:28.944Z,11.48
2022-09-15T23:34:56.184Z,11.50
2022-09-15T23:37:23.412Z,11.48
2022-09-15T23:39:50.703Z,11.44
2022-09-15T23:42:19.354Z,11.45
2022-09-15T23:44:46.615Z,11.43
2022-09-15T23:47:13.842Z,11.43
2022-09-15T23:49:41.360Z,11.45
2022-09-15T23:52:08.631Z,11.44
2022-09-15T23:54:35.883Z,11.48
2022-09-15T23:57:03.256Z,11.49
2022-09-15T23:59:31.828Z,11.46
